Time;durP1;ratioP1;P1;durP2;ratioP2;P2;SDS_P1;SDS_P2;PMS_P1;PMS_P2;Temp;Humidity;BMP_temperature;BMP_pressure;BME280_temperature;BME280_humidity;BME280_pressure;Samples;Min_cycle;Max_cycle;Signal;HPM_P1;HPM_P2
2021/12/17 00:01:38;;;;;;;2.28;2.17;;;8.60;99.90;;;;;;5002773;28;20046;-77
2021/12/17 00:04:14;;;;;;;2.15;1.95;;;8.60;99.90;;;;;;5002803;28;20100;-77
2021/12/17 00:06:47;;;;;;;1.88;1.77;;;8.60;99.90;;;;;;5003316;28;20054;-77
2021/12/17 00:09:13;;;;;;;2.72;2.58;;;8.60;99.90;;;;;;4985854;28;20042;-77
2021/12/17 00:11:38;;;;;;;2.83;1.63;;;8.60;99.90;;;;;;5003620;28;20049;-76
2021/12/17 00:14:04;;;;;;;1.92;1.70;;;8.60;99.90;;;;;;5002853;28;20105;-76
2021/12/17 00:16:36;;;;;;;1.55;1.23;;;8.60;99.90;;;;;;5002452;28;20433;-77
2021/12/17 00:48:48;;;;;;;4.60;2.63;;;8.60;99.90;;;;;;4966079;28;20069;-77
2021/12/17 00:54:17;;;;;;;0.77;0.77;;;8.60;99.90;;;;;;4982855;28;20334;-77
2021/12/17 00:56:43;;;;;;;2.22;2.13;;;8.60;99.90;;;;;;4983054;28;20092;-77
2021/12/17 00:59:08;;;;;;;1.55;1.45;;;8.60;99.90;;;;;;4982565;28;20081;-76
2021/12/17 01:01:34;;;;;;;1.48;1.38;;;8.60;99.90;;;;;;4964331;28;20088;-77
2021/12/17 01:03:59;;;;;;;1.70;1.50;;;8.60;99.90;;;;;;4982084;28;20054;-77
2021/12/17 01:06:25;;;;;;;1.48;1.35;;;8.60;99.90;;;;;;4982041;28;20515;-76
2021/12/17 01:08:51;;;;;;;1.95;1.85;;;8.60;99.90;;;;;;4965439;28;20038;-76
2021/12/17 01:11:19;;;;;;;1.15;1.15;;;8.60;99.90;;;;;;4965761;28;20089;-76
2021/12/17 01:13:45;;;;;;;2.63;1.88;;;8.60;99.90;;;;;;4964999;28;20069;-76
2021/12/17 01:16:11;;;;;;;2.15;1.92;;;8.60;99.90;;;;;;4963537;28;20082;-76
2021/12/17 01:18:48;;;;;;;2.72;2.53;;;8.60;99.90;;;;;;4982621;28;20085;-76
2021/12/17 01:21:38;;;;;;;1.52;1.42;;;8.60;99.90;;;;;;4982254;28;20041;-76
2021/12/17 01:43:13;;;;;;;3.42;1.55;;;8.60;99.90;;;;;;4984010;28;20092;-76
2021/12/17 01:45:40;;;;;;;1.60;1.48;;;8.60;99.90;;;;;;4983328;28;20049;-76
2021/12/17 01:48:11;;;;;;;3.00;2.00;;;8.60;99.90;;;;;;5001257;28;20046;-76
2021/12/17 02:02:01;;;;;;;1.25;1.13;;;8.60;99.90;;;;;;4965996;28;20056;-76
2021/12/17 02:04:27;;;;;;;2.30;2.05;;;8.60;99.90;;;;;;4983896;28;20087;-76
2021/12/17 02:06:52;;;;;;;3.78;2.03;;;8.60;99.90;;;;;;5001470;28;20109;-76
2021/12/17 02:09:55;;;;;;;3.00;2.70;;;8.60;99.90;;;;;;4984479;28;20583;-76
2021/12/17 02:12:37;;;;;;;2.83;2.40;;;8.60;99.90;;;;;;5000987;28;20504;-76
2021/12/17 02:28:54;;;;;;;2.65;2.45;;;8.60;99.90;;;;;;4983742;28;20046;-76
2021/12/17 02:33:50;;;;;;;2.92;2.72;;;8.60;99.90;;;;;;4968619;28;20505;-76
2021/12/17 02:36:20;;;;;;;2.97;2.75;;;8.60;99.90;;;;;;4968249;28;20049;-76
2021/12/17 02:38:46;;;;;;;2.47;2.28;;;8.60;99.90;;;;;;4985803;28;20057;-76
2021/12/17 02:46:40;;;;;;;3.25;1.23;;;8.60;99.90;;;;;;4984736;28;20506;-76
2021/12/17 02:49:07;;;;;;;1.38;1.33;;;8.60;99.90;;;;;;4985448;28;20077;-76
2021/12/17 02:51:33;;;;;;;2.17;2.08;;;8.60;99.90;;;;;;4985075;28;20096;-77
2021/12/17 02:53:59;;;;;;;2.38;1.98;;;8.60;99.90;;;;;;4984944;28;20496;-76
2021/12/17 02:56:25;;;;;;;2.67;1.88;;;8.60;99.90;;;;;;4985037;28;20065;-76
2021/12/17 02:58:53;;;;;;;1.50;1.38;;;8.60;99.90;;;;;;4985071;28;20046;-76
2021/12/17 03:01:19;;;;;;;1.40;1.35;;;8.60;99.90;;;;;;4951123;28;20066;-77
2021/12/17 03:03:48;;;;;;;2.67;2.15;;;8.60;99.90;;;;;;4967886;28;20065;-77
2021/12/17 03:06:14;;;;;;;2.83;2.63;;;8.60;99.90;;;;;;4984502;28;20081;-76
2021/12/17 03:08:40;;;;;;;1.77;1.65;;;8.50;99.90;;;;;;4985308;28;20034;-76
2021/12/17 03:11:06;;;;;;;2.30;2.00;;;8.50;99.90;;;;;;4984506;28;20046;-76
2021/12/17 03:13:34;;;;;;;3.25;2.40;;;8.60;99.90;;;;;;4985181;28;20042;-76
2021/12/17 03:16:10;;;;;;;5.93;1.80;;;8.60;99.90;;;;;;4983564;28;20065;-76
2021/12/17 03:24:02;;;;;;;1.88;1.65;;;8.50;99.90;;;;;;4984716;28;20057;-76
2021/12/17 03:26:28;;;;;;;5.47;1.98;;;8.50;99.90;;;;;;4984436;28;20417;-76
2021/12/17 03:29:06;;;;;;;2.80;1.92;;;8.50;99.90;;;;;;4989398;28;20080;-76
2021/12/17 03:31:32;;;;;;;2.20;1.92;;;8.50;99.90;;;;;;5003143;28;20038;-76
2021/12/17 03:34:16;;;;;;;2.15;1.70;;;8.50;99.90;;;;;;4986126;28;20485;-77
2021/12/17 03:36:42;;;;;;;3.40;3.03;;;8.50;99.90;;;;;;5003987;28;20073;-77
2021/12/17 03:39:08;;;;;;;6.82;3.40;;;8.50;99.90;;;;;;5003178;28;20045;-76
2021/12/17 03:41:38;;;;;;;2.10;2.00;;;8.50;99.90;;;;;;5003530;28;20046;-76
2021/12/17 03:44:06;;;;;;;2.45;2.25;;;8.50;99.90;;;;;;4986142;28;20116;-76
2021/12/17 03:46:32;;;;;;;3.78;3.47;;;8.50;99.90;;;;;;4985247;28;20144;-77
2021/12/17 03:48:58;;;;;;;1.95;1.83;;;8.50;99.90;;;;;;4986403;28;20045;-76
2021/12/17 03:51:24;;;;;;;2.13;1.80;;;8.50;99.90;;;;;;5003719;28;20042;-76
2021/12/17 03:53:53;;;;;;;2.90;2.65;;;8.50;99.90;;;;;;5004097;28;20068;-76
2021/12/17 03:56:19;;;;;;;3.28;2.45;;;8.50;99.90;;;;;;4970265;28;20515;-76
2021/12/17 03:58:45;;;;;;;1.25;1.25;;;8.60;99.90;;;;;;5003663;28;20128;-76
2021/12/17 04:01:10;;;;;;;3.00;2.63;;;8.50;99.90;;;;;;5002718;28;20124;-77
2021/12/17 04:03:36;;;;;;;5.93;2.30;;;8.50;99.90;;;;;;4985655;28;20385;-77
2021/12/17 04:06:02;;;;;;;2.15;1.92;;;8.50;99.90;;;;;;5003049;28;20053;-76
2021/12/17 04:08:29;;;;;;;1.25;1.23;;;8.60;99.90;;;;;;4985953;28;20051;-77
2021/12/17 04:11:02;;;;;;;2.83;1.63;;;8.50;99.90;;;;;;5002724;28;20500;-76
2021/12/17 04:13:33;;;;;;;2.17;1.95;;;8.50;99.90;;;;;;5003482;28;20042;-76
2021/12/17 04:16:03;;;;;;;2.13;1.90;;;8.50;99.90;;;;;;4984412;28;20132;-77
2021/12/17 04:18:30;;;;;;;1.92;1.83;;;8.60;99.90;;;;;;4985559;28;20075;-77
2021/12/17 04:20:59;;;;;;;2.60;2.05;;;8.60;99.90;;;;;;5002825;28;20042;-76
2021/12/17 04:23:25;;;;;;;1.80;1.70;;;8.50;99.90;;;;;;5003075;28;20045;-76
2021/12/17 04:25:50;;;;;;;2.28;2.05;;;8.50;99.90;;;;;;4985786;28;20053;-76
2021/12/17 04:28:17;;;;;;;2.30;2.10;;;8.60;99.90;;;;;;5003306;28;20072;-76
2021/12/17 04:30:44;;;;;;;1.67;1.58;;;8.50;99.90;;;;;;4945956;28;20094;-76
2021/12/17 04:33:10;;;;;;;9.48;2.55;;;8.50;99.90;;;;;;4946455;28;20702;-76
2021/12/17 04:35:37;;;;;;;3.20;2.90;;;8.50;99.90;;;;;;4930648;28;20049;-76
2021/12/17 04:38:05;;;;;;;1.75;1.10;;;8.60;99.90;;;;;;4946265;28;20793;-76
2021/12/17 04:40:31;;;;;;;2.55;2.00;;;8.50;99.90;;;;;;4963837;28;20109;-76
2021/12/17 04:43:17;;;;;;;2.95;2.58;;;8.50;99.90;;;;;;4963703;28;20497;-76
2021/12/17 04:46:02;;;;;;;4.80;2.60;;;8.50;99.90;;;;;;4945952;28;20046;-76
2021/12/17 04:59:25;;;;;;;4.43;2.08;;;8.50;99.90;;;;;;4962583;28;20057;-76
2021/12/17 05:01:51;;;;;;;2.50;2.30;;;8.50;99.90;;;;;;4962987;28;20043;-76
2021/12/17 05:04:16;;;;;;;1.50;1.35;;;8.50;99.90;;;;;;4963697;28;20061;-77
2021/12/17 05:06:42;;;;;;;2.53;2.33;;;8.50;99.90;;;;;;4963332;28;20264;-77
2021/12/17 05:09:17;;;;;;;1.73;1.63;;;8.50;99.90;;;;;;4963078;28;20296;-76
2021/12/17 05:19:47;;;;;;;1.90;1.63;;;8.50;99.90;;;;;;4963286;28;20101;-77
2021/12/17 05:22:13;;;;;;;2.05;1.38;;;8.50;99.90;;;;;;4963211;28;20047;-76
2021/12/17 05:24:39;;;;;;;5.13;2.88;;;8.50;99.90;;;;;;4963420;28;20104;-76
2021/12/17 05:27:05;;;;;;;3.63;2.00;;;8.50;99.90;;;;;;4962545;28;20078;-77
2021/12/17 05:29:31;;;;;;;4.85;2.42;;;8.50;99.90;;;;;;4982003;28;20038;-77
2021/12/17 05:31:56;;;;;;;1.60;1.45;;;8.50;99.90;;;;;;4984017;28;20128;-77
2021/12/17 05:34:23;;;;;;;1.40;1.27;;;8.50;99.90;;;;;;5002445;28;20068;-76
2021/12/17 05:36:49;;;;;;;5.32;3.17;;;8.50;99.90;;;;;;5002538;28;20484;-77
2021/12/17 05:39:14;;;;;;;1.52;1.42;;;8.50;99.90;;;;;;5001830;28;20432;-77
2021/12/17 05:41:40;;;;;;;2.15;1.95;;;8.50;99.90;;;;;;5002140;28;20098;-77
2021/12/17 05:44:06;;;;;;;3.63;2.70;;;8.50;99.90;;;;;;5001653;28;20084;-77
2021/12/17 05:46:50;;;;;;;1.83;1.73;;;8.50;99.90;;;;;;5001181;28;20041;-77
2021/12/17 05:49:18;;;;;;;1.80;1.45;;;8.50;99.90;;;;;;4984630;28;20535;-77
2021/12/17 05:51:43;;;;;;;2.95;1.65;;;8.50;99.90;;;;;;4984220;28;20046;-77
2021/12/17 05:54:09;;;;;;;2.63;2.47;;;8.50;99.90;;;;;;4984316;28;20447;-77
2021/12/17 05:56:34;;;;;;;3.13;2.72;;;8.50;99.90;;;;;;4984015;28;20088;-77
2021/12/17 05:59:00;;;;;;;2.05;1.95;;;8.50;99.90;;;;;;5001394;28;20042;-77
2021/12/17 06:01:26;;;;;;;4.07;2.83;;;8.50;99.90;;;;;;4984773;28;20046;-76
2021/12/17 06:03:51;;;;;;;2.72;2.03;;;8.50;99.90;;;;;;5005386;28;20551;-76
2021/12/17 06:06:32;;;;;;;2.78;2.53;;;8.50;99.90;;;;;;4988569;28;20065;-77
2021/12/17 06:09:00;;;;;;;5.03;2.85;;;8.50;99.90;;;;;;5005297;28;20129;-77
2021/12/17 06:11:25;;;;;;;2.33;2.00;;;8.50;99.90;;;;;;5005151;28;20065;-77
2021/12/17 06:13:51;;;;;;;5.22;2.05;;;8.50;99.90;;;;;;4963197;28;20046;-77
2021/12/17 06:16:17;;;;;;;1.67;1.58;;;8.50;99.90;;;;;;4970724;28;20046;-76
2021/12/17 06:18:42;;;;;;;2.63;2.42;;;8.50;99.90;;;;;;4965411;28;20452;-77
2021/12/17 06:21:08;;;;;;;9.02;3.75;;;8.50;99.90;;;;;;4967699;28;20038;-76
2021/12/17 06:23:33;;;;;;;3.13;2.92;;;8.50;99.90;;;;;;4973336;28;20043;-77
2021/12/17 06:25:59;;;;;;;3.90;2.55;;;8.40;99.90;;;;;;4974675;28;20138;-77
2021/12/17 06:28:24;;;;;;;2.42;2.10;;;8.50;99.90;;;;;;4961283;28;20046;-76
2021/12/17 06:30:50;;;;;;;2.67;2.47;;;8.50;99.90;;;;;;4974767;28;20124;-76
2021/12/17 06:33:15;;;;;;;2.80;2.13;;;8.50;99.90;;;;;;4962304;28;20039;-77
2021/12/17 06:35:41;;;;;;;7.30;2.88;;;8.50;99.90;;;;;;4968887;28;20050;-77
2021/12/17 06:38:07;;;;;;;3.35;2.25;;;8.50;99.90;;;;;;4959328;28;20047;-77
2021/12/17 06:40:33;;;;;;;1.92;1.75;;;8.50;99.90;;;;;;4966136;28;20042;-74
2021/12/17 06:42:58;;;;;;;3.30;1.90;;;8.50;99.90;;;;;;4959164;28;20046;-74
2021/12/17 06:48:26;;;;;;;2.45;2.25;;;8.50;99.90;;;;;;4970184;28;20078;-74
2021/12/17 06:59:06;;;;;;;3.43;3.17;;;8.50;99.90;;;;;;4977497;28;20046;-73
2021/12/17 07:20:44;;;;;;;2.80;2.60;;;8.50;99.90;;;;;;4984809;28;20050;-82
2021/12/17 07:32:06;;;;;;;3.00;2.78;;;8.50;99.90;;;;;;5002635;28;20073;-74
2021/12/17 07:33:36;;;;;;;2.30;2.20;;;8.40;99.90;;;;;;4986946;28;20060;-74
2021/12/17 07:36:17;;;;;;;3.45;2.35;;;8.50;99.90;;;;;;4987814;28;20047;-74
2021/12/17 07:41:09;;;;;;;3.58;1.48;;;8.50;99.90;;;;;;4971484;28;20489;-75
2021/12/17 07:43:37;;;;;;;6.70;4.22;;;8.50;99.90;;;;;;4955950;28;20138;-75
2021/12/17 07:46:09;;;;;;;5.15;1.40;;;8.40;99.90;;;;;;4951150;28;20085;-75
2021/12/17 07:48:36;;;;;;;2.13;2.03;;;8.50;99.90;;;;;;4965595;28;20049;-75
2021/12/17 07:51:06;;;;;;;2.13;1.38;;;8.50;99.90;;;;;;4947983;28;20047;-75
2021/12/17 07:53:32;;;;;;;4.45;3.70;;;8.50;99.90;;;;;;4960599;28;20129;-75
2021/12/17 07:56:00;;;;;;;2.80;2.33;;;8.50;99.90;;;;;;4984705;28;20065;-75
2021/12/17 07:58:26;;;;;;;1.73;1.63;;;8.50;99.90;;;;;;4984832;28;20108;-75
2021/12/17 08:00:52;;;;;;;3.42;2.33;;;8.50;99.90;;;;;;4970476;28;20046;-75
2021/12/17 08:03:17;;;;;;;4.43;2.25;;;8.50;99.90;;;;;;4965544;28;20551;-75
2021/12/17 08:05:43;;;;;;;3.25;2.92;;;8.50;99.90;;;;;;4972637;28;20061;-79
2021/12/17 08:08:09;;;;;;;3.45;1.98;;;8.50;99.90;;;;;;4979900;28;20043;-81
2021/12/17 08:10:35;;;;;;;3.60;2.92;;;8.50;99.90;;;;;;4983052;28;20077;-85
2021/12/17 08:13:01;;;;;;;6.60;2.65;;;8.50;99.90;;;;;;4982280;28;20116;-84
2021/12/17 08:15:35;;;;;;;1.42;1.35;;;8.50;99.90;;;;;;4983082;28;20386;-86
2021/12/17 08:26:10;;;;;;;4.75;1.67;;;8.50;99.90;;;;;;4981916;28;20054;-79
2021/12/17 08:29:06;;;;;;;3.47;3.17;;;8.50;99.90;;;;;;4983582;28;20050;-83
2021/12/17 08:31:33;;;;;;;2.80;2.53;;;8.60;99.90;;;;;;4965734;28;20057;-85
2021/12/17 08:33:59;;;;;;;1.00;0.85;;;8.50;99.90;;;;;;4986032;28;20481;-82
2021/12/17 08:36:25;;;;;;;1.30;1.27;;;8.50;99.90;;;;;;4982844;28;20556;-77
2021/12/17 08:38:51;;;;;;;3.28;2.45;;;8.50;99.90;;;;;;4983074;28;20046;-77
2021/12/17 08:41:19;;;;;;;5.70;3.25;;;8.50;99.90;;;;;;4983489;28;20052;-77
2021/12/17 08:43:45;;;;;;;3.80;2.70;;;8.50;99.90;;;;;;4965885;28;20050;-77
2021/12/17 08:46:11;;;;;;;3.60;1.80;;;8.50;99.90;;;;;;4982124;28;20453;-82
2021/12/17 08:48:37;;;;;;;2.78;2.20;;;8.50;99.90;;;;;;4963050;28;20051;-85
2021/12/17 08:51:08;;;;;;;2.58;2.47;;;8.60;99.90;;;;;;4978956;28;20046;-88
2021/12/17 08:53:34;;;;;;;2.38;2.17;;;8.50;99.90;;;;;;4966030;28;20049;-89
2021/12/17 08:56:03;;;;;;;1.70;1.60;;;8.60;99.90;;;;;;4966438;28;20053;-83
2021/12/17 08:58:29;;;;;;;3.03;2.72;;;8.50;99.90;;;;;;4968688;28;20042;-81
2021/12/17 09:00:55;;;;;;;4.80;2.30;;;8.60;99.90;;;;;;4969228;28;20055;-87
2021/12/17 09:03:23;;;;;;;3.20;1.90;;;8.60;99.90;;;;;;4951433;28;20053;-86
2021/12/17 09:05:49;;;;;;;1.92;1.45;;;8.60;99.90;;;;;;4984118;28;20584;-79
2021/12/17 09:08:54;;;;;;;2.28;1.30;;;8.70;99.90;;;;;;4966319;28;20134;-85
2021/12/17 09:11:48;;;;;;;1.75;1.60;;;8.60;99.90;;;;;;4961558;28;20489;-85
2021/12/17 09:14:21;;;;;;;6.63;1.52;;;8.70;99.90;;;;;;4947930;28;20050;-84
2021/12/17 09:16:51;;;;;;;2.85;2.65;;;8.60;99.90;;;;;;4945848;28;20453;-86
2021/12/17 09:19:17;;;;;;;2.72;2.33;;;8.70;99.90;;;;;;4954727;28;20077;-80
2021/12/17 09:21:43;;;;;;;1.70;1.60;;;8.70;99.90;;;;;;4983001;28;20042;-88
2021/12/17 09:24:09;;;;;;;5.13;1.73;;;8.70;99.90;;;;;;4977970;28;20057;-78
2021/12/17 09:26:34;;;;;;;3.50;1.27;;;8.70;99.90;;;;;;4964914;28;20452;-78
2021/12/17 09:29:00;;;;;;;2.78;1.73;;;8.70;99.90;;;;;;4981315;28;20560;-78
2021/12/17 09:31:26;;;;;;;2.45;1.52;;;8.70;99.90;;;;;;4982319;28;20520;-83
2021/12/17 09:33:52;;;;;;;1.35;1.25;;;8.70;99.90;;;;;;4964634;28;20097;-78
2021/12/17 09:36:19;;;;;;;3.85;1.92;;;8.70;99.90;;;;;;4982041;28;20053;-78
2021/12/17 09:38:52;;;;;;;1.50;1.20;;;8.80;99.90;;;;;;4978790;28;20039;-85
2021/12/17 09:41:22;;;;;;;1.58;1.15;;;8.80;99.90;;;;;;4966384;28;20101;-83
2021/12/17 09:43:57;;;;;;;2.38;2.17;;;8.80;99.90;;;;;;4982150;28;20057;-88
2021/12/17 09:46:23;;;;;;;3.33;2.03;;;8.80;99.90;;;;;;4948652;28;20097;-87
2021/12/17 09:48:49;;;;;;;2.58;2.35;;;8.90;99.90;;;;;;4982053;28;20058;-84
2021/12/17 09:51:18;;;;;;;1.08;0.98;;;8.90;99.90;;;;;;4978806;28;20035;-78
2021/12/17 09:53:44;;;;;;;1.08;0.95;;;8.80;99.90;;;;;;4982327;28;20054;-80
2021/12/17 09:56:22;;;;;;;2.28;2.10;;;8.90;99.90;;;;;;4981637;28;20039;-82
2021/12/17 09:58:57;;;;;;;1.77;1.67;;;8.90;99.90;;;;;;4963858;28;20684;-84
2021/12/17 10:01:23;;;;;;;1.65;1.30;;;8.90;99.90;;;;;;4964372;28;20050;-83
2021/12/17 10:04:12;;;;;;;2.03;1.17;;;8.90;99.90;;;;;;4965070;28;20436;-80
2021/12/17 10:06:38;;;;;;;1.10;1.10;;;8.90;99.90;;;;;;4981689;28;20054;-83
2021/12/17 10:09:03;;;;;;;1.30;1.20;;;8.90;99.90;;;;;;4982462;28;20405;-82
2021/12/17 10:11:32;;;;;;;1.40;1.30;;;8.90;99.90;;;;;;4963008;28;20069;-85
2021/12/17 10:14:22;;;;;;;0.73;0.70;;;8.90;99.90;;;;;;4981502;28;20126;-82
2021/12/17 10:16:48;;;;;;;1.20;1.17;;;8.90;99.90;;;;;;4965471;28;20492;-81
2021/12/17 10:19:41;;;;;;;0.73;0.73;;;9.00;99.90;;;;;;4940570;28;20151;-82
2021/12/17 10:22:13;;;;;;;0.63;0.63;;;9.00;99.90;;;;;;4982748;28;20038;-86
2021/12/17 10:24:58;;;;;;;0.63;0.63;;;9.10;99.90;;;;;;4981433;28;20051;-87
2021/12/17 10:27:27;;;;;;;2.03;1.55;;;9.00;99.90;;;;;;4981373;28;20061;-84
2021/12/17 10:29:54;;;;;;;0.40;0.40;;;9.00;99.90;;;;;;4981339;28;20129;-88
2021/12/17 10:32:23;;;;;;;0.82;0.80;;;9.00;99.90;;;;;;4964483;28;20054;-92
2021/12/17 10:35:21;;;;;;;2.30;0.55;;;9.00;99.90;;;;;;4981897;28;20100;-82
2021/12/17 10:37:52;;;;;;;0.32;0.32;;;9.10;99.90;;;;;;4975737;28;20089;-88
2021/12/17 10:40:21;;;;;;;0.70;0.70;;;9.10;99.90;;;;;;4953367;28;20436;-92
2021/12/17 10:43:01;;;;;;;0.85;0.85;;;9.00;99.90;;;;;;4987749;28;20043;-94
2021/12/17 10:45:29;;;;;;;1.88;0.60;;;9.10;99.90;;;;;;4982302;28;20034;-94
2021/12/17 10:50:52;;;;;;;4.53;0.68;;;9.10;99.90;;;;;;4985662;28;20089;-86
2021/12/17 10:53:23;;;;;;;0.93;0.90;;;9.10;99.90;;;;;;4967867;28;20084;-87
2021/12/17 10:55:49;;;;;;;0.43;0.43;;;9.10;99.90;;;;;;4985366;28;20145;-88
2021/12/17 10:58:15;;;;;;;0.60;0.60;;;9.10;99.90;;;;;;4984281;28;20238;-84
2021/12/17 11:00:50;;;;;;;2.67;1.17;;;9.10;99.90;;;;;;4984260;28;20409;-91
2021/12/17 11:03:16;;;;;;;0.93;0.85;;;9.10;99.90;;;;;;4967880;28;20050;-88
2021/12/17 11:05:42;;;;;;;1.52;0.95;;;9.10;99.90;;;;;;4984307;28;20422;-83
2021/12/17 11:08:30;;;;;;;4.00;0.63;;;9.10;99.90;;;;;;4984316;28;20042;-86
2021/12/17 11:11:08;;;;;;;0.68;0.68;;;9.10;99.90;;;;;;4967286;28;20057;-79
2021/12/17 11:13:36;;;;;;;0.75;0.60;;;9.10;99.90;;;;;;4983605;28;20097;-79
2021/12/17 11:16:03;;;;;;;1.58;0.70;;;9.10;99.90;;;;;;4984320;28;20120;-82
2021/12/17 11:18:28;;;;;;;1.70;1.00;;;9.10;99.90;;;;;;4983739;28;20049;-74
2021/12/17 11:20:56;;;;;;;0.90;0.90;;;9.10;99.90;;;;;;4984388;28;20047;-74
2021/12/17 11:23:23;;;;;;;0.90;0.90;;;9.10;99.90;;;;;;4984001;28;20039;-74
2021/12/17 11:25:53;;;;;;;1.13;1.13;;;9.10;99.90;;;;;;4967637;28;20077;-74
2021/12/17 11:28:21;;;;;;;1.33;1.33;;;9.20;99.90;;;;;;4951200;28;20061;-73
2021/12/17 11:30:50;;;;;;;0.63;0.63;;;9.10;99.90;;;;;;4984163;28;20046;-73
2021/12/17 11:33:15;;;;;;;0.65;0.65;;;9.10;99.90;;;;;;4983939;28;20736;-74
2021/12/17 11:35:43;;;;;;;1.20;0.65;;;9.10;99.90;;;;;;4984862;28;20050;-74
2021/12/17 11:38:36;;;;;;;0.93;0.90;;;9.20;99.90;;;;;;4981792;28;20038;-79
2021/12/17 11:41:07;;;;;;;3.17;1.77;;;9.10;99.90;;;;;;4983781;28;20128;-80
2021/12/17 11:43:49;;;;;;;1.63;0.82;;;9.10;99.90;;;;;;4982227;28;20038;-79
2021/12/17 11:46:21;;;;;;;1.25;1.13;;;9.10;99.90;;;;;;4966234;28;20073;-79
2021/12/17 11:48:58;;;;;;;2.78;1.75;;;9.20;99.90;;;;;;4984658;28;20053;-79
2021/12/17 11:51:29;;;;;;;0.32;0.32;;;9.10;99.90;;;;;;4984055;28;20133;-79
2021/12/17 11:53:55;;;;;;;1.55;1.45;;;9.20;99.90;;;;;;4982787;28;20041;-79
2021/12/17 11:56:44;;;;;;;1.08;1.08;;;9.20;99.90;;;;;;4983970;28;20468;-80
2021/12/17 11:59:25;;;;;;;1.15;1.05;;;9.20;99.90;;;;;;4981783;28;20062;-79
2021/12/17 12:02:14;;;;;;;0.80;0.80;;;9.20;99.90;;;;;;4950386;28;20054;-79
2021/12/17 12:05:11;;;;;;;0.70;0.70;;;9.20;99.90;;;;;;4966013;28;20846;-81
2021/12/17 12:07:37;;;;;;;1.55;1.45;;;9.20;99.90;;;;;;4949562;28;20093;-82
2021/12/17 12:10:12;;;;;;;3.13;0.95;;;9.20;99.90;;;;;;4983159;28;20145;-76
2021/12/17 12:12:38;;;;;;;1.35;0.95;;;9.20;99.90;;;;;;4983631;28;20062;-77
2021/12/17 12:15:27;;;;;;;0.43;0.43;;;9.20;99.90;;;;;;4982338;28;20042;-80
2021/12/17 12:18:03;;;;;;;1.02;1.02;;;9.20;99.90;;;;;;4945441;28;20062;-80
2021/12/17 12:20:52;;;;;;;1.20;1.13;;;9.20;99.90;;;;;;4963117;28;20093;-80
2021/12/17 12:23:32;;;;;;;0.90;0.90;;;9.30;99.90;;;;;;4963606;28;20142;-78
2021/12/17 12:26:04;;;;;;;1.13;1.05;;;9.30;99.90;;;;;;4978471;28;20522;-78
2021/12/17 12:28:44;;;;;;;0.82;0.35;;;9.30;99.90;;;;;;4965643;28;20085;-78
2021/12/17 12:31:13;;;;;;;0.80;0.50;;;9.30;99.90;;;;;;4954522;28;20059;-78
2021/12/17 12:34:06;;;;;;;0.55;0.55;;;9.30;99.90;;;;;;4969288;28;20031;-76
2021/12/17 12:37:07;;;;;;;1.20;1.20;;;9.30;99.90;;;;;;4952208;28;20079;-76
2021/12/17 12:39:42;;;;;;;0.80;0.80;;;9.30;99.90;;;;;;4982043;28;20042;-76
2021/12/17 12:42:29;;;;;;;0.77;0.77;;;9.30;99.90;;;;;;4965408;28;20124;-76
2021/12/17 12:44:57;;;;;;;2.88;1.75;;;9.30;99.90;;;;;;4974452;28;20050;-77
2021/12/17 12:47:26;;;;;;;1.10;1.10;;;9.30;99.90;;;;;;4969706;28;20073;-76
2021/12/17 12:50:03;;;;;;;1.10;1.10;;;9.30;99.90;;;;;;4937667;28;20081;-77
2021/12/17 12:52:34;;;;;;;0.85;0.85;;;9.30;99.90;;;;;;4981262;28;20046;-77
2021/12/17 12:55:02;;;;;;;0.90;0.60;;;9.30;99.90;;;;;;4966595;28;20062;-76
2021/12/17 12:57:34;;;;;;;3.40;1.10;;;9.30;99.90;;;;;;4964696;28;20489;-77
2021/12/17 13:00:17;;;;;;;0.83;0.80;;;9.30;99.90;;;;;;4979485;28;20051;-76
2021/12/17 13:02:43;;;;;;;0.68;0.68;;;9.30;99.90;;;;;;4963670;28;20038;-76
2021/12/17 13:05:10;;;;;;;0.55;0.55;;;9.30;99.90;;;;;;4945247;28;20197;-76
2021/12/17 13:07:42;;;;;;;1.23;1.10;;;9.30;99.90;;;;;;4962491;28;20049;-80
2021/12/17 13:10:15;;;;;;;0.43;0.43;;;9.30;99.90;;;;;;4961988;28;20098;-78
2021/12/17 13:12:46;;;;;;;0.63;0.50;;;9.30;99.90;;;;;;4973705;28;20069;-76
2021/12/17 13:15:20;;;;;;;1.23;1.13;;;9.30;99.90;;;;;;4981405;28;20421;-77
2021/12/17 13:20:58;;;;;;;1.45;0.98;;;9.30;99.90;;;;;;4964596;28;20058;-76
2021/12/17 13:23:24;;;;;;;0.10;0.10;;;9.30;99.90;;;;;;4948632;28;20039;-77
2021/12/17 13:26:23;;;;;;;0.90;0.75;;;9.30;99.90;;;;;;4982528;28;20049;-82
2021/12/17 13:28:53;;;;;;;0.93;0.70;;;9.30;99.90;;;;;;4973786;28;20057;-75
2021/12/17 13:31:37;;;;;;;0.68;0.68;;;9.30;99.90;;;;;;5001799;28;20046;-75
2021/12/17 13:34:22;;;;;;;0.40;0.38;;;9.30;99.90;;;;;;4984040;28;20062;-75
2021/12/17 13:36:56;;;;;;;0.70;0.70;;;9.30;99.90;;;;;;4978241;28;20042;-75
2021/12/17 13:39:24;;;;;;;0.70;0.60;;;9.30;99.90;;;;;;4953190;28;20544;-73
2021/12/17 13:41:50;;;;;;;0.47;0.47;;;9.30;99.90;;;;;;4960618;28;20086;-72
2021/12/17 13:44:34;;;;;;;0.77;0.77;;;9.30;99.90;;;;;;4962312;28;20498;-72
2021/12/17 13:47:25;;;;;;;0.32;0.32;;;9.30;99.90;;;;;;4945063;28;20054;-72
2021/12/17 13:49:53;;;;;;;0.68;0.68;;;9.30;99.90;;;;;;4940475;28;20576;-74
2021/12/17 13:52:22;;;;;;;0.98;0.93;;;9.40;99.90;;;;;;4945647;28;20057;-73
2021/12/17 13:54:50;;;;;;;0.45;0.45;;;9.30;99.90;;;;;;4945440;28;20051;-72
2021/12/17 13:57:18;;;;;;;0.75;0.75;;;9.40;99.90;;;;;;4963149;28;20150;-73
2021/12/17 13:59:45;;;;;;;1.17;1.08;;;9.30;99.90;;;;;;4962293;28;20132;-74
2021/12/17 14:02:21;;;;;;;0.57;0.57;;;9.30;99.90;;;;;;4971833;28;20272;-72
2021/12/17 14:05:14;;;;;;;0.25;0.25;;;9.30;99.90;;;;;;4981649;28;20058;-73
2021/12/17 14:07:40;;;;;;;;;;;9.30;99.90;;;;;;4964431;28;20042;-73
2021/12/17 14:10:10;;;;;;;0.82;0.82;;;9.30;99.90;;;;;;4981354;28;19928;-72
2021/12/17 14:12:40;;;;;;;0.75;0.75;;;9.30;99.90;;;;;;4964404;28;20162;-72
2021/12/17 14:15:18;;;;;;;0.60;0.60;;;9.30;99.90;;;;;;4980271;28;20253;-72
2021/12/17 14:17:47;;;;;;;0.40;0.40;;;9.30;99.90;;;;;;4981406;28;20042;-72
2021/12/17 14:20:16;;;;;;;0.22;0.22;;;9.40;99.90;;;;;;4964241;28;20408;-71
2021/12/17 14:22:44;;;;;;;0.63;0.63;;;9.30;99.90;;;;;;4983972;28;20177;-72
2021/12/17 14:25:32;;;;;;;0.73;0.50;;;9.30;99.90;;;;;;4968147;28;20451;-72
2021/12/17 14:28:01;;;;;;;1.33;1.00;;;9.40;99.90;;;;;;4984344;28;20485;-72
2021/12/17 14:30:35;;;;;;;1.38;1.27;;;9.30;99.90;;;;;;4951495;28;20695;-72
2021/12/17 14:33:10;;;;;;;1.45;1.15;;;9.30;99.90;;;;;;4968084;28;20053;-72
2021/12/17 14:35:52;;;;;;;1.17;0.95;;;9.30;99.90;;;;;;4985405;28;20061;-72
2021/12/17 14:38:20;;;;;;;1.27;0.73;;;9.30;99.90;;;;;;4968398;28;20046;-72
2021/12/17 14:40:54;;;;;;;0.25;0.25;;;9.30;99.90;;;;;;4985683;28;20109;-72
2021/12/17 14:43:34;;;;;;;1.27;0.63;;;9.30;99.90;;;;;;4985107;28;20043;-73
2021/12/17 14:46:26;;;;;;;1.05;0.98;;;9.30;99.90;;;;;;4984831;28;20050;-72
2021/12/17 14:57:11;;;;;;;1.02;0.68;;;9.30;99.90;;;;;;4967615;28;20046;-72
2021/12/17 15:03:27;;;;;;;1.00;0.85;;;9.30;99.90;;;;;;4984939;28;20446;-72
2021/12/17 15:05:55;;;;;;;0.82;0.82;;;9.30;99.90;;;;;;4984731;28;20149;-72
2021/12/17 15:08:21;;;;;;;2.20;1.05;;;9.40;99.90;;;;;;4985165;28;20038;-73
2021/12/17 15:10:47;;;;;;;0.93;0.82;;;9.30;99.90;;;;;;4967808;28;20130;-72
2021/12/17 15:13:14;;;;;;;1.00;0.95;;;9.30;99.90;;;;;;4983417;28;20093;-72
2021/12/17 15:15:40;;;;;;;1.00;1.00;;;9.30;99.90;;;;;;4982979;28;20046;-72
2021/12/17 15:18:14;;;;;;;0.60;0.60;;;9.30;99.90;;;;;;4982970;28;20057;-74
2021/12/17 15:20:44;;;;;;;0.63;0.63;;;9.30;99.90;;;;;;4950388;28;20077;-78
2021/12/17 15:23:09;;;;;;;1.27;1.23;;;9.30;99.90;;;;;;4980262;28;20072;-74
2021/12/17 15:25:39;;;;;;;0.63;0.50;;;9.30;99.90;;;;;;4984541;28;20444;-74
2021/12/17 15:28:06;;;;;;;2.15;1.35;;;9.30;99.90;;;;;;4981975;28;20042;-73
2021/12/17 15:30:36;;;;;;;1.35;1.25;;;9.30;99.90;;;;;;5002046;28;20488;-73
2021/12/17 15:33:02;;;;;;;0.73;0.65;;;9.30;99.90;;;;;;5003633;28;20053;-73
2021/12/17 15:35:28;;;;;;;0.68;0.68;;;9.30;99.90;;;;;;5002888;28;20049;-73
2021/12/17 15:37:56;;;;;;;1.20;1.20;;;9.30;99.90;;;;;;5003164;28;20053;-73
2021/12/17 15:40:24;;;;;;;1.10;0.93;;;9.30;99.90;;;;;;4986313;28;20058;-73
2021/12/17 15:42:51;;;;;;;0.98;0.90;;;9.30;99.90;;;;;;5003474;28;20108;-73
2021/12/17 15:45:17;;;;;;;1.48;1.38;;;9.30;99.90;;;;;;4998466;28;20045;-73
2021/12/17 15:47:43;;;;;;;0.80;0.80;;;9.30;99.90;;;;;;4966637;28;20141;-73
2021/12/17 15:50:11;;;;;;;0.70;0.70;;;9.30;99.90;;;;;;4983359;28;20117;-75
2021/12/17 15:52:44;;;;;;;0.57;0.57;;;9.30;99.90;;;;;;4984058;28;20042;-75
2021/12/17 15:55:11;;;;;;;0.98;0.98;;;9.30;99.90;;;;;;4966646;28;20500;-74
2021/12/17 15:57:37;;;;;;;1.60;1.45;;;9.30;99.90;;;;;;4983738;28;20042;-75
2021/12/17 16:00:04;;;;;;;1.15;1.08;;;9.30;99.90;;;;;;4983609;28;20456;-74
2021/12/17 16:02:30;;;;;;;1.33;1.23;;;9.30;99.90;;;;;;4984412;28;20046;-74
2021/12/17 16:04:56;;;;;;;3.70;1.52;;;9.30;99.90;;;;;;4965364;28;20108;-77
2021/12/17 16:07:22;;;;;;;0.77;0.77;;;9.30;99.90;;;;;;4964350;28;20228;-79
2021/12/17 16:10:30;;;;;;;1.20;1.20;;;9.30;99.90;;;;;;4984239;28;20072;-79
2021/12/17 16:18:13;;;;;;;2.10;1.10;;;9.30;99.90;;;;;;4966235;28;20145;-78